createdAt,value
2018-08-18T00:02:28.603Z,75.60
2018-08-18T00:04:56.973Z,75.50
2018-08-18T00:07:25.393Z,75.10
2018-08-18T00:09:53.829Z,74.90
2018-08-18T00:12:28.330Z,74.90
2018-08-18T00:14:56.978Z,75.10
2018-08-18T00:17:25.411Z,75.30
2018-08-18T00:19:54.441Z,75.70
2018-08-18T00:22:22.848Z,76.00
2018-08-18T00:24:57.708Z,76.40
2018-08-18T00:27:26.609Z,76.50
2018-08-18T00:30:00.438Z,76.30
2018-08-18T00:32:29.288Z,76.70
2018-08-18T00:34:57.649Z,76.70
2018-08-18T00:37:26.325Z,77.00
2018-08-18T00:39:55.570Z,77.20
2018-08-18T00:42:24.242Z,77.50
2018-08-18T00:44:52.979Z,77.60
2018-08-18T00:47:21.486Z,77.50
2018-08-18T00:49:50.010Z,77.90
2018-08-18T00:52:18.405Z,78.10
2018-08-18T00:54:46.820Z,78.40
2018-08-18T00:57:28.638Z,78.20
2018-08-18T00:59:57.212Z,78.30
2018-08-18T01:02:26.139Z,78.30
2018-08-18T01:04:55.288Z,78.40
2018-08-18T01:07:24.609Z,78.20
2018-08-18T01:09:53.032Z,78.20
2018-08-18T01:12:21.587Z,78.20
2018-08-18T01:14:49.864Z,78.20
2018-08-18T01:17:18.229Z,78.50
2018-08-18T01:19:47.490Z,78.60
2018-08-18T01:22:15.877Z,78.90
2018-08-18T01:24:44.254Z,79.00
2018-08-18T01:27:12.698Z,79.20
2018-08-18T01:29:41.309Z,79.70
2018-08-18T01:32:09.728Z,80.00
2018-08-18T01:34:38.097Z,79.80
2018-08-18T01:37:11.810Z,80.00
2018-08-18T01:39:40.314Z,80.30
2018-08-18T01:42:09.025Z,80.40
2018-08-18T01:44:37.393Z,80.80
2018-08-18T01:47:09.582Z,81.10
2018-08-18T01:49:38.483Z,81.20
2018-08-18T01:52:13.495Z,81.40
2018-08-18T01:54:42.452Z,81.30
2018-08-18T01:57:12.361Z,81.60
2018-08-18T01:59:42.801Z,81.60
2018-08-18T02:02:12.435Z,81.70
2018-08-18T02:04:41.390Z,81.60
2018-08-18T02:07:33.930Z,81.60
2018-08-18T02:10:02.341Z,81.70
2018-08-18T02:12:31.055Z,81.50
2018-08-18T02:15:00.004Z,81.40
2018-08-18T02:17:37.162Z,81.40
2018-08-18T02:20:07.473Z,81.30
2018-08-18T02:22:35.818Z,81.30
2018-08-18T02:25:04.621Z,81.40
2018-08-18T02:27:32.946Z,81.60
2018-08-18T02:30:12.756Z,82.20
2018-08-18T02:32:41.083Z,81.50
2018-08-18T02:35:09.479Z,81.70
2018-08-18T02:37:38.873Z,81.80
2018-08-18T02:40:10.087Z,81.70
2018-08-18T02:42:38.330Z,82.00
2018-08-18T02:45:07.825Z,82.00
2018-08-18T02:47:36.146Z,82.20
2018-08-18T02:50:06.200Z,82.10
2018-08-18T02:52:35.328Z,82.10
2018-08-18T02:55:05.170Z,82.10
2018-08-18T02:57:36.609Z,82.20
2018-08-18T03:00:13.051Z,82.40
2018-08-18T03:02:41.369Z,82.60
2018-08-18T03:05:09.997Z,82.70
2018-08-18T03:07:42.661Z,82.80
2018-08-18T03:10:16.559Z,82.90
2018-08-18T03:12:45.919Z,82.80
2018-08-18T03:16:18.695Z,82.70
2018-08-18T03:18:50.821Z,82.80
2018-08-18T03:21:25.370Z,82.60
2018-08-18T03:24:05.212Z,82.80
2018-08-18T03:26:40.166Z,83.80
2018-08-18T03:29:08.669Z,83.10
2018-08-18T03:31:38.671Z,83.20
2018-08-18T03:34:07.951Z,84.20
2018-08-18T03:36:37.785Z,84.50
2018-08-18T03:39:12.087Z,84.70
2018-08-18T03:41:40.423Z,84.70
2018-08-18T03:44:08.792Z,84.70
2018-08-18T03:46:37.123Z,83.80
2018-08-18T03:49:05.697Z,83.30
2018-08-18T03:51:39.577Z,83.30
2018-08-18T03:54:07.982Z,83.20
2018-08-18T03:56:36.323Z,83.10
2018-08-18T03:59:04.677Z,83.10
2018-08-18T04:01:43.691Z,83.30
2018-08-18T04:04:13.314Z,83.40
2018-08-18T04:06:42.785Z,83.30
2018-08-18T04:09:14.217Z,83.20
2018-08-18T04:11:42.561Z,83.50
2018-08-18T04:14:10.935Z,83.50
2018-08-18T04:16:46.827Z,83.40
2018-08-18T04:19:16.274Z,83.20
2018-08-18T04:21:46.026Z,83.40
2018-08-18T04:24:14.825Z,83.40
2018-08-18T04:26:43.427Z,83.60
2018-08-18T04:29:11.730Z,83.80
2018-08-18T04:31:40.087Z,84.10
2018-08-18T04:34:08.771Z,84.40
2018-08-18T04:36:37.490Z,84.50
2018-08-18T04:39:09.216Z,84.60
2018-08-18T04:41:37.596Z,84.60
2018-08-18T04:44:06.193Z,84.60
2018-08-18T04:46:34.706Z,84.40
2018-08-18T04:49:03.344Z,84.40
2018-08-18T04:51:31.750Z,84.10
2018-08-18T04:54:00.231Z,84.00
2018-08-18T04:56:28.612Z,84.00
2018-08-18T04:58:57.502Z,83.90
2018-08-18T05:01:25.834Z,83.80
2018-08-18T05:04:13.549Z,83.70
2018-08-18T05:06:43.211Z,83.50
2018-08-18T05:09:13.679Z,83.50
2018-08-18T05:11:43.017Z,83.30
2018-08-18T05:14:11.342Z,83.30
2018-08-18T05:16:39.689Z,83.10
2018-08-18T05:19:08.072Z,82.80
2018-08-18T05:21:36.409Z,82.70
2018-08-18T05:24:20.288Z,82.10
2018-08-18T05:26:48.796Z,81.70
2018-08-18T05:29:17.121Z,81.10
2018-08-18T05:31:45.600Z,81.70
2018-08-18T05:34:14.002Z,80.50
2018-08-18T05:36:42.742Z,80.20
2018-08-18T05:39:11.500Z,79.60
2018-08-18T05:41:40.160Z,79.40
2018-08-18T05:44:08.492Z,79.10
2018-08-18T05:46:36.835Z,78.90
2018-08-18T05:49:10.649Z,78.70
2018-08-18T05:51:43.202Z,78.60
2018-08-18T05:54:13.567Z,78.00
2018-08-18T05:56:44.502Z,77.40
2018-08-18T05:59:12.821Z,77.30
2018-08-18T06:01:41.877Z,77.00
2018-08-18T06:04:13.358Z,77.10
2018-08-18T06:06:42.510Z,76.90
2018-08-18T06:09:12.321Z,76.80
2018-08-18T06:11:40.660Z,76.60
2018-08-18T06:14:09.822Z,76.50
2018-08-18T06:16:38.235Z,76.20
2018-08-18T06:19:06.743Z,75.80
2018-08-18T06:21:35.119Z,75.50
2018-08-18T06:24:03.623Z,75.30
2018-08-18T06:26:31.965Z,75.30
2018-08-18T06:29:00.337Z,74.50
2018-08-18T06:31:28.917Z,74.20
2018-08-18T06:33:57.942Z,73.70
2018-08-18T06:36:26.848Z,73.00
2018-08-18T06:38:55.216Z,72.50
2018-08-18T06:41:23.853Z,72.20
2018-08-18T06:43:52.411Z,72.20
2018-08-18T06:46:20.781Z,71.30
2018-08-18T06:48:49.172Z,70.70
2018-08-18T06:51:17.529Z,70.40
2018-08-18T06:53:48.891Z,70.30
2018-08-18T06:56:17.676Z,69.50
2018-08-18T06:58:46.863Z,69.10
2018-08-18T07:01:15.286Z,68.60
2018-08-18T07:03:46.367Z,67.70
2018-08-18T07:06:16.314Z,67.40
2018-08-18T07:08:50.082Z,67.10
2018-08-18T07:11:18.452Z,66.60
2018-08-18T07:13:47.489Z,66.40
2018-08-18T07:16:15.868Z,65.50
2018-08-18T07:18:44.346Z,64.90
2018-08-18T07:21:13.179Z,65.10
2018-08-18T07:23:41.543Z,64.40
2018-08-18T07:26:09.967Z,63.60
2018-08-18T07:28:38.321Z,63.30
2018-08-18T07:31:06.704Z,62.50
2018-08-18T07:33:35.354Z,62.30
2018-08-18T07:36:03.862Z,61.90
2018-08-18T07:38:32.225Z,61.20
2018-08-18T07:41:00.702Z,60.20
2018-08-18T07:43:32.189Z,60.60
2018-08-18T07:46:02.098Z,60.10
2018-08-18T07:48:30.951Z,60.00
2018-08-18T07:50:59.434Z,60.10
2018-08-18T07:53:27.846Z,60.30
2018-08-18T07:55:57.031Z,59.30
2018-08-18T07:58:25.717Z,59.30
2018-08-18T08:00:56.767Z,59.00
2018-08-18T08:03:25.149Z,58.80
2018-08-18T08:05:53.504Z,58.40
2018-08-18T08:08:23.426Z,58.00
2018-08-18T08:10:55.513Z,57.70
2018-08-18T08:13:23.856Z,57.10
2018-08-18T08:15:52.223Z,56.90
2018-08-18T08:18:20.678Z,56.90
2018-08-18T08:20:49.004Z,56.60
2018-08-18T08:23:17.424Z,56.60
2018-08-18T08:25:46.378Z,56.40
2018-08-18T08:28:14.735Z,56.00
2018-08-18T08:30:43.566Z,55.70
2018-08-18T08:33:14.738Z,56.80
2018-08-18T08:38:23.028Z,56.70
2018-08-18T08:40:51.433Z,56.30
2018-08-18T08:43:30.970Z,55.90
2018-08-18T08:45:59.334Z,55.80
2018-08-18T08:48:28.090Z,55.60
2018-08-18T08:50:56.625Z,55.10
2018-08-18T08:53:25.058Z,54.90
2018-08-18T08:55:54.355Z,54.70
2018-08-18T08:58:22.735Z,54.50
2018-08-18T09:00:51.083Z,54.20
2018-08-18T09:03:19.470Z,54.10
2018-08-18T09:05:47.932Z,54.30
2018-08-18T09:08:16.390Z,54.30
2018-08-18T09:10:44.721Z,53.80
2018-08-18T09:13:13.087Z,54.40
2018-08-18T09:15:41.559Z,54.60
2018-08-18T09:18:09.962Z,55.00
2018-08-18T09:20:45.173Z,54.90
2018-08-18T09:23:13.576Z,54.50
2018-08-18T09:25:41.987Z,54.30
2018-08-18T09:28:10.372Z,54.20
2018-08-18T09:30:38.689Z,53.90
2018-08-18T09:33:07.423Z,53.60
2018-08-18T09:35:54.270Z,53.00
2018-08-18T09:38:22.651Z,52.50
2018-08-18T09:40:51.023Z,51.90
2018-08-18T09:43:24.117Z,51.90
2018-08-18T09:45:53.958Z,51.40
2018-08-18T09:48:23.562Z,51.00
2018-08-18T09:50:52.238Z,50.80
2018-08-18T09:53:20.663Z,50.50
2018-08-18T09:55:49.629Z,50.50
2018-08-18T09:58:18.026Z,50.70
2018-08-18T10:00:46.431Z,50.60
2018-08-18T10:03:15.461Z,50.60
2018-08-18T10:05:43.860Z,50.70
2018-08-18T10:08:13.041Z,51.00
2018-08-18T10:10:41.398Z,50.60
2018-08-18T10:13:09.790Z,50.00
2018-08-18T10:15:38.172Z,49.60
2018-08-18T10:18:06.605Z,49.50
2018-08-18T10:20:40.216Z,48.90
2018-08-18T10:23:10.466Z,48.00
2018-08-18T10:25:38.820Z,47.40
2018-08-18T10:28:08.135Z,47.70
2018-08-18T10:30:36.582Z,47.40
2018-08-18T10:33:05.016Z,46.80
2018-08-18T10:35:33.430Z,46.30
2018-08-18T10:38:04.123Z,45.90
2018-08-18T10:40:32.688Z,45.10
2018-08-18T10:43:01.076Z,45.50
2018-08-18T10:45:29.452Z,44.50
2018-08-18T10:47:58.627Z,44.00
2018-08-18T10:51:41.412Z,43.60
2018-08-18T10:54:09.791Z,43.30
2018-08-18T10:56:38.302Z,42.00
2018-08-18T10:59:16.600Z,40.80
2018-08-18T11:02:26.293Z,40.70
2018-08-18T11:04:54.643Z,40.80
2018-08-18T11:07:24.194Z,40.20
2018-08-18T11:09:52.544Z,39.40
2018-08-18T11:12:20.869Z,39.40
2018-08-18T11:14:54.718Z,38.50
2018-08-18T11:17:23.063Z,37.40
2018-08-18T11:19:51.453Z,37.00
2018-08-18T11:23:15.408Z,37.50
2018-08-18T11:25:50.807Z,38.00
2018-08-18T11:28:19.809Z,36.30
2018-08-18T11:30:49.699Z,35.60
2018-08-18T11:33:34.558Z,35.80
2018-08-18T11:36:03.608Z,34.70
2018-08-18T11:38:32.610Z,35.20
2018-08-18T11:41:01.222Z,34.70
2018-08-18T11:43:31.972Z,34.90
2018-08-18T11:46:00.406Z,33.90
2018-08-18T11:48:29.940Z,33.80
2018-08-18T11:50:58.309Z,33.20
2018-08-18T11:53:27.651Z,33.20
2018-08-18T11:55:55.984Z,33.20
2018-08-18T11:58:25.241Z,31.80
2018-08-18T12:00:59.901Z,30.50
2018-08-18T12:03:35.335Z,30.30
2018-08-18T12:06:04.944Z,30.10
2018-08-18T12:08:34.527Z,29.50
2018-08-18T12:11:04.254Z,29.90
2018-08-18T12:13:37.886Z,29.60
2018-08-18T12:16:10.505Z,29.40
2018-08-18T12:18:40.225Z,28.80
2018-08-18T12:21:08.896Z,28.70
2018-08-18T12:23:38.820Z,27.60
2018-08-18T12:26:10.897Z,28.00
2018-08-18T12:28:44.867Z,27.90
2018-08-18T12:31:15.914Z,27.90
2018-08-18T12:33:44.447Z,28.50
2018-08-18T12:36:12.948Z,28.00
2018-08-18T12:38:43.701Z,28.40
2018-08-18T12:41:12.424Z,28.10
2018-08-18T12:43:44.065Z,28.10
2018-08-18T12:46:14.891Z,26.90
2018-08-18T12:48:45.782Z,24.60
2018-08-18T12:51:15.410Z,24.90
2018-08-18T12:53:51.006Z,25.40
2018-08-18T12:56:21.476Z,24.00
2018-08-18T12:58:49.941Z,23.70
2018-08-18T13:01:39.094Z,24.30
2018-08-18T13:04:09.763Z,24.90
2018-08-18T13:06:55.751Z,24.50
2018-08-18T13:09:26.580Z,24.40
2018-08-18T13:11:56.198Z,24.50
2018-08-18T13:14:26.241Z,23.30
2018-08-18T13:16:54.560Z,22.60
2018-08-18T13:19:24.588Z,21.90
2018-08-18T13:21:53.030Z,21.50
2018-08-18T13:24:21.582Z,21.70
2018-08-18T13:26:50.160Z,22.00
2018-08-18T13:29:18.566Z,22.20
2018-08-18T13:31:47.721Z,21.40
2018-08-18T13:34:17.501Z,21.30
2018-08-18T13:36:46.626Z,21.90
2018-08-18T13:39:20.236Z,21.60
2018-08-18T13:41:50.029Z,20.80
2018-08-18T13:44:30.812Z,20.90
2018-08-18T13:46:59.150Z,20.70
2018-08-18T13:49:27.864Z,21.10
2018-08-18T13:51:56.398Z,20.50
2018-08-18T13:54:24.831Z,20.80
2018-08-18T13:56:53.199Z,21.10
2018-08-18T13:59:38.719Z,21.40
2018-08-18T14:02:07.563Z,21.40
2018-08-18T14:04:36.189Z,20.40
2018-08-18T14:07:04.541Z,19.60
2018-08-18T14:09:32.912Z,19.40
2018-08-18T14:12:06.705Z,19.00
2018-08-18T14:14:35.157Z,19.10
2018-08-18T14:17:03.516Z,19.70
2018-08-18T14:19:32.383Z,19.20
2018-08-18T14:22:08.135Z,19.10
2018-08-18T14:24:38.054Z,18.80
2018-08-18T14:27:12.548Z,18.70
2018-08-18T14:29:40.886Z,18.20
2018-08-18T14:32:14.850Z,17.30
2018-08-18T14:34:45.894Z,16.90
2018-08-18T14:37:14.312Z,17.10
2018-08-18T14:39:43.685Z,17.30
2018-08-18T14:42:12.186Z,18.00
2018-08-18T14:44:40.628Z,17.70
2018-08-18T14:47:08.967Z,17.90
2018-08-18T14:49:37.326Z,18.30
2018-08-18T14:52:05.920Z,18.40
2018-08-18T14:54:34.350Z,18.50
2018-08-18T14:57:03.726Z,18.40
2018-08-18T14:59:35.445Z,18.20
2018-08-18T15:02:05.405Z,18.50
2018-08-18T15:05:05.110Z,18.20
2018-08-18T15:07:37.794Z,17.70
2018-08-18T15:10:06.198Z,17.30
2018-08-18T15:12:34.871Z,17.30
2018-08-18T15:15:03.247Z,16.80
2018-08-18T15:17:31.639Z,16.60
2018-08-18T15:20:01.132Z,16.40
2018-08-18T15:22:29.466Z,15.90
2018-08-18T15:24:57.873Z,16.00
2018-08-18T15:27:26.237Z,15.90
2018-08-18T15:29:57.526Z,16.00
2018-08-18T15:32:26.699Z,15.50
2018-08-18T15:34:55.032Z,15.90
2018-08-18T15:37:24.246Z,16.80
2018-08-18T15:39:52.578Z,16.90
2018-08-18T15:42:21.495Z,16.70
2018-08-18T15:44:58.546Z,16.80
2018-08-18T15:47:28.579Z,16.20
2018-08-18T15:49:57.487Z,17.10
2018-08-18T15:52:32.438Z,17.10
2018-08-18T15:55:02.061Z,18.00
2018-08-18T15:57:30.614Z,18.10
2018-08-18T15:59:59.062Z,18.40
2018-08-18T16:02:28.166Z,18.10
2018-08-18T16:04:56.833Z,17.20
2018-08-18T16:07:25.522Z,17.40
2018-08-18T16:09:53.868Z,17.40
2018-08-18T16:12:22.202Z,17.40
2018-08-18T16:14:50.558Z,16.70
2018-08-18T16:17:18.894Z,16.20
2018-08-18T16:19:47.318Z,16.00
2018-08-18T16:22:15.626Z,16.90
2018-08-18T16:24:45.619Z,16.80
2018-08-18T16:27:14.150Z,16.60
2018-08-18T16:29:42.629Z,16.60
2018-08-18T16:32:26.022Z,16.40
2018-08-18T16:35:03.389Z,16.80
2018-08-18T16:37:33.295Z,17.00
2018-08-18T16:40:02.254Z,17.10
2018-08-18T16:42:32.729Z,17.50
2018-08-18T16:45:01.588Z,17.30
2018-08-18T16:47:30.955Z,17.20
2018-08-18T16:49:59.302Z,17.40
2018-08-18T16:52:27.720Z,17.60
2018-08-18T16:54:56.119Z,16.90
2018-08-18T16:57:25.615Z,16.70
2018-08-18T16:59:53.966Z,17.00
2018-08-18T17:02:34.895Z,17.10
2018-08-18T17:05:04.315Z,17.00
2018-08-18T17:07:32.673Z,17.30
2018-08-18T17:10:01.010Z,17.50
2018-08-18T17:12:30.939Z,17.60
2018-08-18T17:14:59.643Z,17.70
2018-08-18T17:17:28.002Z,17.90
2018-08-18T17:21:01.026Z,18.60
2018-08-18T17:23:31.195Z,18.30
2018-08-18T17:25:59.549Z,18.80
2018-08-18T17:28:29.351Z,19.10
2018-08-18T17:30:57.850Z,19.30
2018-08-18T17:33:27.432Z,19.60
2018-08-18T17:35:56.666Z,20.10
2018-08-18T17:38:25.130Z,20.30
2018-08-18T17:40:53.458Z,20.50
2018-08-18T17:43:22.048Z,20.70
2018-08-18T17:45:57.986Z,21.40
2018-08-18T17:48:27.471Z,21.00
2018-08-18T17:50:57.285Z,21.30
2018-08-18T17:53:26.968Z,21.50
2018-08-18T17:56:02.664Z,21.70
2018-08-18T17:58:31.262Z,22.10
2018-08-18T18:01:00.157Z,22.40
2018-08-18T18:03:28.626Z,22.60
2018-08-18T18:05:57.481Z,23.00
2018-08-18T18:08:26.410Z,23.10
2018-08-18T18:10:54.986Z,23.60
2018-08-18T18:13:25.185Z,24.00
2018-08-18T18:15:53.789Z,24.60
2018-08-18T18:18:23.073Z,25.60
2018-08-18T18:20:52.852Z,26.30
2018-08-18T18:23:21.781Z,27.00
2018-08-18T18:25:50.294Z,27.70
2018-08-18T18:28:18.703Z,28.60
2018-08-18T18:30:47.191Z,28.50
2018-08-18T18:35:59.875Z,29.90
2018-08-18T18:38:29.263Z,30.60
2018-08-18T18:40:58.012Z,31.10
2018-08-18T18:43:26.507Z,31.80
2018-08-18T18:45:55.007Z,32.20
2018-08-18T18:48:23.312Z,32.70
2018-08-18T18:50:51.914Z,33.30
2018-08-18T18:53:20.257Z,33.60
2018-08-18T18:55:53.327Z,34.00
2018-08-18T18:58:21.730Z,34.30
2018-08-18T19:01:09.325Z,34.40
2018-08-18T19:03:37.959Z,34.60
2018-08-18T19:06:06.308Z,34.60
2018-08-18T19:08:41.125Z,34.90
2018-08-18T19:11:09.537Z,35.10
2018-08-18T19:13:37.874Z,35.40
2018-08-18T19:16:06.251Z,36.10
2018-08-18T19:18:34.594Z,35.80
2018-08-18T19:21:03.040Z,36.10
2018-08-18T19:23:32.538Z,36.20
2018-08-18T19:26:00.986Z,36.40
2018-08-18T19:28:29.511Z,36.40
2018-08-18T19:30:57.941Z,36.50
2018-08-18T19:33:26.438Z,37.20
2018-08-18T19:35:54.852Z,37.00
2018-08-18T19:38:23.797Z,36.30
2018-08-18T19:40:53.169Z,36.60
2018-08-18T19:43:24.066Z,36.90
2018-08-18T19:45:53.022Z,36.80
2018-08-18T19:48:22.777Z,37.20
2018-08-18T19:50:57.105Z,37.50
2018-08-18T19:53:30.127Z,37.60
2018-08-18T19:56:00.498Z,37.60
2018-08-18T19:58:30.091Z,37.60
2018-08-18T20:00:58.444Z,37.30
2018-08-18T20:03:27.339Z,36.90
2018-08-18T20:05:56.449Z,37.00
2018-08-18T20:08:26.343Z,36.70
2018-08-18T20:10:59.579Z,37.20
2018-08-18T20:13:29.208Z,37.60
2018-08-18T20:16:02.313Z,37.90
2018-08-18T20:18:32.548Z,37.70
2018-08-18T20:21:01.129Z,37.50
2018-08-18T20:23:29.914Z,37.10
2018-08-18T20:25:58.377Z,37.10
2018-08-18T20:28:26.805Z,37.00
2018-08-18T20:30:55.350Z,37.10
2018-08-18T20:33:23.795Z,37.10
2018-08-18T20:35:52.139Z,37.10
2018-08-18T20:38:20.537Z,37.30
2018-08-18T20:40:48.982Z,37.20
2018-08-18T20:43:17.432Z,36.80
2018-08-18T20:45:48.403Z,36.70
2018-08-18T20:48:20.026Z,37.50
2018-08-18T20:50:48.474Z,37.20
2018-08-18T20:53:18.575Z,37.10
2018-08-18T20:56:03.447Z,37.20
2018-08-18T20:58:33.147Z,37.10
2018-08-18T21:01:02.095Z,37.30
2018-08-18T21:03:46.939Z,37.10
2018-08-18T21:06:16.375Z,37.70
2018-08-18T21:08:44.716Z,37.60
2018-08-18T21:11:13.122Z,38.80
2018-08-18T21:13:41.584Z,38.10
2018-08-18T21:16:10.223Z,38.70
2018-08-18T21:18:38.549Z,38.30
2018-08-18T21:21:24.207Z,38.60
2018-08-18T21:23:52.882Z,38.80
2018-08-18T21:26:21.395Z,38.80
2018-08-18T21:28:51.347Z,39.30
2018-08-18T21:31:25.303Z,39.60
2018-08-18T21:33:54.993Z,39.60
2018-08-18T21:36:23.368Z,39.90
2018-08-18T21:38:51.869Z,40.10
2018-08-18T21:41:20.286Z,40.50
2018-08-18T21:43:49.239Z,40.60
2018-08-18T21:46:17.749Z,40.80
2018-08-18T21:48:48.682Z,40.80
2018-08-18T21:51:17.102Z,40.90
2018-08-18T21:53:45.930Z,41.00
2018-08-18T21:56:14.674Z,40.90
2018-08-18T21:58:43.043Z,41.00
2018-08-18T22:01:16.550Z,41.20
2018-08-18T22:03:45.583Z,40.90
2018-08-18T22:06:14.258Z,41.20
2018-08-18T22:08:42.889Z,41.50
2018-08-18T22:11:17.590Z,41.20
2018-08-18T22:13:56.494Z,41.10
2018-08-18T22:16:24.844Z,40.90
2018-08-18T22:19:03.102Z,41.10
2018-08-18T22:21:31.934Z,41.40
2018-08-18T22:24:02.107Z,41.40
2018-08-18T22:26:30.959Z,41.80
2018-08-18T22:29:01.446Z,41.60
2018-08-18T22:31:30.644Z,42.40
2018-08-18T22:34:00.014Z,42.60
2018-08-18T22:36:32.190Z,43.10
2018-08-18T22:39:01.009Z,43.40
2018-08-18T22:41:29.482Z,43.90
2018-08-18T22:43:59.184Z,44.90
2018-08-18T22:46:29.369Z,45.10
2018-08-18T22:48:57.713Z,46.00
2018-08-18T22:51:26.159Z,46.30
2018-08-18T22:53:55.641Z,46.50
2018-08-18T22:56:28.290Z,46.80
2018-08-18T22:59:03.781Z,47.30
2018-08-18T23:01:32.900Z,47.30
2018-08-18T23:04:02.260Z,47.30
2018-08-18T23:06:33.789Z,47.10
2018-08-18T23:09:02.157Z,46.70
2018-08-18T23:11:30.511Z,46.80
2018-08-18T23:13:58.955Z,47.10
2018-08-18T23:16:27.596Z,46.20
2018-08-18T23:18:56.602Z,45.90
2018-08-18T23:21:29.626Z,45.40
2018-08-18T23:24:00.900Z,45.40
2018-08-18T23:26:29.485Z,45.10
2018-08-18T23:28:58.480Z,45.00
2018-08-18T23:31:26.786Z,45.00
2018-08-18T23:33:55.164Z,45.00
2018-08-18T23:36:24.419Z,45.10
2018-08-18T23:38:57.931Z,44.90
2018-08-18T23:41:26.269Z,44.80
2018-08-18T23:43:54.686Z,44.40
2018-08-18T23:46:22.999Z,44.20
2018-08-18T23:48:51.729Z,44.10
2018-08-18T23:51:26.103Z,44.50
2018-08-18T23:53:54.488Z,44.90
2018-08-18T23:56:22.842Z,45.40
2018-08-18T23:58:51.322Z,45.60
